createdAt,value
2023-05-14T00:01:20.168Z,7.50
2023-05-14T00:03:46.959Z,7.72
2023-05-14T00:06:15.023Z,8.18
2023-05-14T00:08:41.738Z,9.20
2023-05-14T00:11:08.982Z,7.85
2023-05-14T00:13:36.415Z,7.50
2023-05-14T00:16:03.294Z,8.10
2023-05-14T00:18:30.078Z,6.85
2023-05-14T00:20:56.865Z,6.70
2023-05-14T00:23:24.209Z,6.95
2023-05-14T00:25:50.991Z,8.48
2023-05-14T00:28:17.963Z,7.78
2023-05-14T00:30:45.012Z,8.20
2023-05-14T00:33:11.758Z,7.35
2023-05-14T00:35:38.534Z,6.97
2023-05-14T00:38:05.399Z,6.93
2023-05-14T00:40:32.277Z,7.18
2023-05-14T00:42:59.018Z,7.82
2023-05-14T00:45:25.911Z,8.10
2023-05-14T00:47:54.027Z,7.10
2023-05-14T00:50:21.651Z,7.03
2023-05-14T00:52:49.417Z,7.20
2023-05-14T00:55:16.930Z,6.90
2023-05-14T00:57:44.303Z,8.00
2023-05-14T01:00:11.694Z,7.85
2023-05-14T01:02:38.633Z,7.70
2023-05-14T01:05:06.892Z,9.52
2023-05-14T01:08:06.745Z,7.90
2023-05-14T01:10:44.638Z,8.07
2023-05-14T01:13:21.616Z,7.72
2023-05-14T01:15:49.331Z,8.20
2023-05-14T01:18:19.370Z,8.88
2023-05-14T01:20:46.440Z,8.98
2023-05-14T01:23:13.190Z,11.82
2023-05-14T01:25:39.903Z,9.25
2023-05-14T01:28:20.405Z,9.38
2023-05-14T01:31:18.744Z,8.25
2023-05-14T01:33:49.508Z,8.05
2023-05-14T01:36:16.345Z,8.80
2023-05-14T01:38:45.880Z,11.38
2023-05-14T01:41:14.623Z,10.40
2023-05-14T01:43:42.302Z,11.07
2023-05-14T01:46:09.099Z,11.60
2023-05-14T01:48:35.921Z,10.10
2023-05-14T01:51:02.704Z,9.93
2023-05-14T01:53:29.538Z,10.35
2023-05-14T01:55:56.259Z,9.05
2023-05-14T01:58:22.979Z,9.93
2023-05-14T02:00:49.674Z,9.65
2023-05-14T02:03:16.440Z,9.25
2023-05-14T02:05:43.164Z,9.15
2023-05-14T02:08:09.911Z,9.95
2023-05-14T02:10:36.629Z,10.85
2023-05-14T02:13:03.931Z,10.63
2023-05-14T02:15:30.756Z,11.18
2023-05-14T02:17:57.508Z,11.25
2023-05-14T02:20:24.601Z,11.30
2023-05-14T02:22:51.700Z,11.77
2023-05-14T02:25:18.947Z,10.10
2023-05-14T02:27:46.263Z,12.85
2023-05-14T02:30:14.268Z,9.15
2023-05-14T02:32:41.357Z,8.90
2023-05-14T02:35:09.006Z,10.07
2023-05-14T02:37:35.749Z,10.77
2023-05-14T02:40:02.567Z,11.07
2023-05-14T02:42:29.301Z,8.90
2023-05-14T02:44:56.282Z,9.55
2023-05-14T02:47:23.076Z,9.00
2023-05-14T02:49:50.060Z,9.73
2023-05-14T02:52:16.791Z,9.90
2023-05-14T02:54:43.523Z,10.38
2023-05-14T02:57:10.245Z,9.25
2023-05-14T02:59:36.963Z,9.88
2023-05-14T03:02:03.851Z,10.95
2023-05-14T03:04:31.011Z,9.88
2023-05-14T03:06:57.775Z,9.68
2023-05-14T03:09:24.482Z,10.73
2023-05-14T03:11:51.251Z,11.68
2023-05-14T03:14:17.976Z,12.57
2023-05-14T03:16:46.022Z,11.02
2023-05-14T03:19:12.888Z,12.05
2023-05-14T03:21:39.858Z,11.15
2023-05-14T03:24:06.959Z,10.90
2023-05-14T03:26:33.847Z,10.77
2023-05-14T03:29:00.697Z,10.18
2023-05-14T03:31:27.549Z,10.50
2023-05-14T03:33:54.293Z,9.27
2023-05-14T03:36:21.025Z,11.48
2023-05-14T03:38:47.868Z,10.05
2023-05-14T03:41:14.624Z,11.43
2023-05-14T03:43:41.344Z,11.13
2023-05-14T03:46:08.051Z,11.30
2023-05-14T03:48:34.857Z,11.05
2023-05-14T03:51:01.700Z,10.98
2023-05-14T03:53:28.380Z,9.93
2023-05-14T03:55:55.110Z,10.30
2023-05-14T03:58:21.790Z,9.63
2023-05-14T04:24:20.408Z,7.30
2023-05-14T04:26:47.128Z,7.93
2023-05-14T04:29:13.844Z,9.02
2023-05-14T04:31:40.826Z,9.25
2023-05-14T04:34:07.566Z,9.55
2023-05-14T04:36:34.357Z,10.48
2023-05-14T04:39:01.057Z,11.70
2023-05-14T04:41:27.788Z,11.00
2023-05-14T04:43:56.878Z,10.38
2023-05-14T04:46:23.735Z,10.98
2023-05-14T04:48:51.582Z,11.13
2023-05-14T04:51:18.414Z,11.38
2023-05-14T04:53:45.180Z,10.10
2023-05-14T04:56:12.049Z,9.60
2023-05-14T04:58:38.835Z,9.57
2023-05-14T05:01:06.117Z,9.60
2023-05-14T05:03:33.102Z,10.25
2023-05-14T05:05:59.893Z,10.02
2023-05-14T05:08:26.767Z,8.88
2023-05-14T05:10:53.502Z,9.50
2023-05-14T05:13:20.238Z,10.85
2023-05-14T05:15:46.971Z,11.27
2023-05-14T05:18:13.895Z,12.10
2023-05-14T05:20:40.787Z,12.88
2023-05-14T05:23:07.500Z,11.80
2023-05-14T05:25:34.208Z,11.82
2023-05-14T05:28:01.038Z,12.20
2023-05-14T05:30:27.832Z,11.60
2023-05-14T05:32:56.967Z,11.20
2023-05-14T05:35:23.752Z,10.95
2023-05-14T05:37:50.538Z,11.18
2023-05-14T05:40:27.590Z,10.93
2023-05-14T05:42:54.411Z,10.50
2023-05-14T05:45:21.275Z,11.25
2023-05-14T05:47:48.035Z,9.25
2023-05-14T05:50:15.004Z,9.27
2023-05-14T05:52:41.819Z,10.40
2023-05-14T05:55:09.331Z,9.85
2023-05-14T05:57:36.050Z,9.60
2023-05-14T06:00:12.702Z,9.88
2023-05-14T06:02:41.596Z,9.60
2023-05-14T06:05:09.703Z,8.98
2023-05-14T06:07:36.770Z,9.00
2023-05-14T06:10:03.867Z,8.63
2023-05-14T06:12:30.625Z,8.48
2023-05-14T06:15:01.585Z,8.48
2023-05-14T06:17:28.407Z,8.18
2023-05-14T06:19:55.403Z,8.00
2023-05-14T06:22:22.429Z,7.43
2023-05-14T06:24:49.210Z,7.47
2023-05-14T06:27:15.927Z,7.15
2023-05-14T06:29:44.735Z,7.22
2023-05-14T06:32:14.132Z,7.57
2023-05-14T06:34:42.421Z,7.55
2023-05-14T06:37:10.317Z,7.20
2023-05-14T06:39:38.140Z,6.75
2023-05-14T06:42:05.682Z,7.40
2023-05-14T06:44:32.402Z,7.20
2023-05-14T06:46:59.187Z,7.07
2023-05-14T06:49:26.084Z,6.68
2023-05-14T06:51:53.714Z,7.35
2023-05-14T06:54:20.579Z,6.65
2023-05-14T06:56:47.401Z,7.85
2023-05-14T06:59:14.150Z,7.60
2023-05-14T07:01:41.076Z,6.82
2023-05-14T07:04:08.084Z,6.80
2023-05-14T07:06:34.865Z,7.63
2023-05-14T07:09:02.555Z,7.10
2023-05-14T07:11:29.667Z,7.47
2023-05-14T07:13:56.472Z,7.57
2023-05-14T07:16:23.190Z,7.18
2023-05-14T07:18:50.031Z,7.38
2023-05-14T07:21:16.813Z,7.18
2023-05-14T07:23:43.675Z,7.70
2023-05-14T07:26:10.737Z,7.60
2023-05-14T07:28:37.446Z,7.43
2023-05-14T07:31:08.882Z,7.07
2023-05-14T07:33:36.498Z,7.28
2023-05-14T07:36:03.369Z,6.88
2023-05-14T07:38:30.180Z,7.22
2023-05-14T07:41:24.385Z,7.13
2023-05-14T07:43:51.209Z,7.18
2023-05-14T07:46:17.939Z,6.80
2023-05-14T07:48:44.735Z,6.50
2023-05-14T07:51:11.817Z,7.80
2023-05-14T07:53:38.544Z,7.43
2023-05-14T07:56:05.849Z,7.00
2023-05-14T07:58:32.582Z,7.40
2023-05-14T08:01:01.247Z,6.90
2023-05-14T08:03:28.110Z,7.07
2023-05-14T08:05:54.909Z,6.07
2023-05-14T08:08:21.630Z,6.30
2023-05-14T08:10:48.397Z,6.80
2023-05-14T08:13:15.171Z,6.70
2023-05-14T08:15:41.875Z,6.63
2023-05-14T08:18:08.664Z,6.30
2023-05-14T08:20:35.427Z,6.90
2023-05-14T08:23:02.250Z,6.13
2023-05-14T08:25:29.085Z,6.43
2023-05-14T08:27:55.951Z,6.13
2023-05-14T08:30:23.366Z,6.05
2023-05-14T08:32:50.359Z,5.93
2023-05-14T08:35:18.127Z,6.47
2023-05-14T08:37:45.681Z,6.68
2023-05-14T08:40:13.126Z,5.70
2023-05-14T08:42:44.760Z,6.32
2023-05-14T08:45:28.977Z,6.70
2023-05-14T08:47:56.808Z,6.32
2023-05-14T08:50:24.769Z,6.85
2023-05-14T08:52:53.002Z,6.45
2023-05-14T08:55:20.509Z,6.15
2023-05-14T08:57:47.247Z,6.60
2023-05-14T09:00:15.567Z,6.93
2023-05-14T09:02:44.652Z,6.20
2023-05-14T09:05:12.258Z,5.38
2023-05-14T09:07:39.219Z,6.53
2023-05-14T09:10:08.808Z,6.30
2023-05-14T09:12:35.565Z,6.20
2023-05-14T09:15:02.298Z,5.53
2023-05-14T09:17:29.189Z,6.30
2023-05-14T09:19:56.275Z,6.47
2023-05-14T09:22:23.769Z,6.10
2023-05-14T09:25:06.967Z,6.78
2023-05-14T09:27:34.243Z,6.60
2023-05-14T09:30:12.840Z,6.43
2023-05-14T09:32:44.396Z,6.30
2023-05-14T09:35:19.157Z,7.00
2023-05-14T09:37:49.338Z,7.50
2023-05-14T09:40:18.384Z,6.97
2023-05-14T09:42:45.404Z,7.30
2023-05-14T09:45:12.792Z,7.57
2023-05-14T09:47:40.064Z,8.45
2023-05-14T09:50:08.281Z,7.60
2023-05-14T09:52:35.560Z,7.18
2023-05-14T09:55:02.540Z,7.35
2023-05-14T09:57:29.402Z,6.68
2023-05-14T09:59:56.113Z,5.82
2023-05-14T10:02:29.349Z,5.85
2023-05-14T10:05:00.783Z,4.60
2023-05-14T10:07:37.215Z,5.45
2023-05-14T10:10:09.384Z,5.20
2023-05-14T10:12:40.065Z,5.32
2023-05-14T10:15:17.853Z,4.50
2023-05-14T10:17:50.188Z,4.45
2023-05-14T10:20:17.597Z,4.50
2023-05-14T10:22:44.394Z,3.92
2023-05-14T10:25:11.982Z,4.22
2023-05-14T10:27:40.263Z,4.13
2023-05-14T10:30:12.665Z,4.03
2023-05-14T10:32:41.835Z,3.40
2023-05-14T10:35:25.209Z,3.40
2023-05-14T10:37:51.970Z,3.30
2023-05-14T10:40:19.298Z,2.88
2023-05-14T10:42:46.946Z,3.55
2023-05-14T10:45:15.273Z,3.15
2023-05-14T10:47:47.121Z,3.33
2023-05-14T10:50:17.545Z,3.95
2023-05-14T10:52:46.059Z,3.70
2023-05-14T10:55:15.279Z,3.25
2023-05-14T10:57:45.008Z,3.55
2023-05-14T11:00:14.946Z,3.65
2023-05-14T11:02:44.496Z,3.42
2023-05-14T11:05:15.512Z,3.42
2023-05-14T11:07:46.738Z,3.30
2023-05-14T11:10:16.360Z,3.00
2023-05-14T11:12:49.188Z,3.13
2023-05-14T11:15:24.692Z,3.10
2023-05-14T11:17:53.251Z,3.00
2023-05-14T11:20:21.074Z,3.35
2023-05-14T11:22:51.402Z,3.20
2023-05-14T11:25:18.835Z,2.85
2023-05-14T11:27:47.884Z,2.95
2023-05-14T11:30:19.808Z,2.85
2023-05-14T11:32:48.994Z,2.78
2023-05-14T11:35:17.103Z,3.33
2023-05-14T11:37:51.334Z,3.30
2023-05-14T11:40:18.359Z,3.60
2023-05-14T11:42:45.736Z,3.17
2023-05-14T11:45:25.481Z,4.25
2023-05-14T11:47:54.698Z,3.72
2023-05-14T11:50:23.097Z,4.28
2023-05-14T11:52:50.939Z,3.70
2023-05-14T11:55:17.949Z,4.25
2023-05-14T11:57:44.857Z,3.25
2023-05-14T12:00:14.465Z,3.58
2023-05-14T12:02:41.507Z,2.60
2023-05-14T12:05:10.454Z,3.00
2023-05-14T12:07:37.308Z,2.72
2023-05-14T12:10:04.854Z,3.00
2023-05-14T12:12:37.011Z,2.65
2023-05-14T12:15:12.649Z,2.65
2023-05-14T12:17:39.765Z,3.10
2023-05-14T12:20:12.769Z,2.55
2023-05-14T12:22:42.347Z,2.90
2023-05-14T12:25:13.894Z,2.25
2023-05-14T12:27:41.446Z,2.70
2023-05-14T12:32:40.962Z,2.50
2023-05-14T12:35:08.726Z,2.28
2023-05-14T12:37:37.285Z,2.30
2023-05-14T12:40:08.947Z,2.50
2023-05-14T12:42:36.248Z,2.60
2023-05-14T12:45:06.929Z,2.50
2023-05-14T12:47:33.906Z,2.10
2023-05-14T12:50:00.801Z,2.20
2023-05-14T12:52:37.445Z,2.35
2023-05-14T12:55:06.205Z,2.63
2023-05-14T12:57:34.972Z,2.95
2023-05-14T13:00:02.307Z,2.95
2023-05-14T13:02:29.057Z,2.53
2023-05-14T13:04:55.791Z,2.55
2023-05-14T13:07:22.884Z,2.65
2023-05-14T13:09:49.622Z,2.30
2023-05-14T13:12:16.342Z,2.50
2023-05-14T13:14:43.202Z,2.28
2023-05-14T13:17:09.988Z,2.25
2023-05-14T13:19:36.779Z,2.30
2023-05-14T13:22:03.818Z,2.10
2023-05-14T13:24:30.563Z,2.22
2023-05-14T13:26:57.363Z,2.30
2023-05-14T13:29:24.513Z,2.10
2023-05-14T13:31:51.325Z,2.10
2023-05-14T13:34:18.410Z,2.03
2023-05-14T13:36:46.805Z,1.98
2023-05-14T13:39:14.466Z,1.80
2023-05-14T13:41:41.663Z,2.00
2023-05-14T13:44:08.430Z,2.17
2023-05-14T13:46:35.272Z,2.00
2023-05-14T13:49:02.251Z,2.03
2023-05-14T13:51:29.020Z,2.08
2023-05-14T13:53:56.131Z,2.13
2023-05-14T13:56:23.188Z,2.30
2023-05-14T13:58:50.037Z,2.05
2023-05-14T14:01:16.889Z,2.30
2023-05-14T14:03:43.671Z,1.95
2023-05-14T14:06:10.737Z,2.10
2023-05-14T14:08:37.486Z,1.90
2023-05-14T14:11:04.502Z,2.10
2023-05-14T14:13:31.276Z,2.00
2023-05-14T14:15:59.143Z,2.20
2023-05-14T14:18:26.874Z,2.65
2023-05-14T14:20:53.801Z,2.30
2023-05-14T14:23:20.634Z,2.38
2023-05-14T14:25:47.362Z,2.45
2023-05-14T14:28:14.147Z,2.20
2023-05-14T14:30:41.049Z,2.10
2023-05-14T14:33:07.864Z,2.28
2023-05-14T14:35:35.647Z,2.53
2023-05-14T14:38:02.384Z,2.22
2023-05-14T14:40:29.695Z,2.10
2023-05-14T14:42:56.551Z,2.30
2023-05-14T14:45:23.612Z,2.20
2023-05-14T14:47:50.756Z,2.42
2023-05-14T14:50:17.600Z,2.60
2023-05-14T14:52:46.037Z,2.15
2023-05-14T14:55:13.124Z,2.20
2023-05-14T14:57:39.973Z,2.13
2023-05-14T15:00:07.676Z,2.35
2023-05-14T15:02:34.904Z,2.38
2023-05-14T15:05:01.927Z,2.30
2023-05-14T15:07:32.722Z,2.25
2023-05-14T15:09:59.563Z,2.30
2023-05-14T15:12:26.319Z,2.45
2023-05-14T15:14:53.104Z,2.63
2023-05-14T15:17:19.903Z,2.30
2023-05-14T15:19:47.502Z,2.58
2023-05-14T15:22:14.333Z,2.20
2023-05-14T15:24:41.110Z,2.40
2023-05-14T15:27:07.919Z,2.20
2023-05-14T15:29:34.667Z,2.22
2023-05-14T15:32:02.174Z,2.38
2023-05-14T15:34:28.983Z,2.10
2023-05-14T15:36:55.715Z,2.60
2023-05-14T15:39:22.517Z,2.20
2023-05-14T15:41:49.299Z,2.03
2023-05-14T15:44:16.187Z,1.90
2023-05-14T15:46:42.986Z,2.38
2023-05-14T15:49:09.784Z,2.10
2023-05-14T15:51:36.673Z,1.75
2023-05-14T15:54:03.647Z,2.30
2023-05-14T15:56:31.191Z,2.38
2023-05-14T15:58:57.953Z,2.20
2023-05-14T16:01:24.773Z,2.40
2023-05-14T16:03:52.835Z,2.22
2023-05-14T16:06:19.727Z,2.30
2023-05-14T16:08:46.468Z,2.30
2023-05-14T16:11:13.225Z,2.15
2023-05-14T16:13:41.439Z,2.10
2023-05-14T16:16:08.535Z,2.15
2023-05-14T16:18:35.432Z,1.90
2023-05-14T16:21:02.403Z,1.92
2023-05-14T16:23:29.276Z,2.30
2023-05-14T16:25:56.061Z,2.00
2023-05-14T16:28:23.206Z,2.25
2023-05-14T16:30:50.090Z,2.20
2023-05-14T16:33:16.835Z,2.25
2023-05-14T16:35:44.159Z,1.98
2023-05-14T16:38:11.368Z,2.25
2023-05-14T16:40:38.142Z,2.00
2023-05-14T16:43:04.988Z,2.58
2023-05-14T16:45:34.173Z,2.38
2023-05-14T16:48:01.581Z,2.28
2023-05-14T16:50:28.741Z,2.35
2023-05-14T16:52:55.605Z,2.50
2023-05-14T16:55:22.814Z,2.15
2023-05-14T16:57:49.850Z,2.28
2023-05-14T17:00:17.652Z,2.20
2023-05-14T17:02:44.590Z,2.45
2023-05-14T17:05:13.429Z,2.20
2023-05-14T17:07:40.269Z,2.53
2023-05-14T17:10:07.758Z,2.33
2023-05-14T17:12:34.578Z,2.58
2023-05-14T17:15:03.701Z,2.45
2023-05-14T17:17:32.649Z,2.47
2023-05-14T17:20:00.216Z,2.08
2023-05-14T17:22:27.240Z,2.08
2023-05-14T17:24:54.238Z,2.00
2023-05-14T17:27:20.994Z,2.30
2023-05-14T17:29:50.844Z,2.30
2023-05-14T17:32:18.385Z,2.55
2023-05-14T17:34:45.243Z,2.13
2023-05-14T17:37:12.233Z,2.42
2023-05-14T17:39:39.017Z,2.13
2023-05-14T17:42:06.557Z,2.30
2023-05-14T17:44:33.330Z,2.33
2023-05-14T17:47:00.744Z,2.60
2023-05-14T17:49:27.613Z,2.60
2023-05-14T17:51:54.345Z,2.42
2023-05-14T17:54:21.196Z,2.50
2023-05-14T17:56:50.812Z,2.50
2023-05-14T17:59:17.691Z,2.50
2023-05-14T18:01:44.495Z,2.42
2023-05-14T18:04:11.380Z,2.63
2023-05-14T18:06:38.306Z,2.85
2023-05-14T18:09:05.253Z,2.70
2023-05-14T18:11:35.452Z,2.40
2023-05-14T18:14:02.923Z,2.75
2023-05-14T18:16:29.980Z,2.55
2023-05-14T18:18:56.809Z,2.63
2023-05-14T18:21:23.694Z,2.47
2023-05-14T18:23:50.515Z,2.63
2023-05-14T18:26:17.427Z,2.60
2023-05-14T18:28:44.317Z,2.65
2023-05-14T18:31:11.113Z,2.80
2023-05-14T18:33:37.981Z,3.05
2023-05-14T18:36:06.353Z,2.92
2023-05-14T18:38:33.100Z,2.72
2023-05-14T18:40:59.841Z,2.78
2023-05-14T18:43:26.635Z,2.92
2023-05-14T18:45:54.140Z,3.10
2023-05-14T18:48:20.931Z,2.67
2023-05-14T18:50:47.665Z,2.88
2023-05-14T18:53:14.479Z,2.60
2023-05-14T18:55:41.319Z,3.00
2023-05-14T18:58:08.347Z,2.55
2023-05-14T19:00:35.140Z,2.90
2023-05-14T19:03:02.074Z,2.78
2023-05-14T19:05:29.011Z,3.15
2023-05-14T19:07:56.902Z,2.95
2023-05-14T19:10:23.697Z,2.70
2023-05-14T19:12:50.444Z,3.42
2023-05-14T19:15:17.292Z,3.00
2023-05-14T19:17:44.817Z,3.15
2023-05-14T19:20:12.796Z,3.20
2023-05-14T19:22:39.550Z,2.78
2023-05-14T19:25:08.145Z,3.10
2023-05-14T19:27:37.968Z,3.40
2023-05-14T19:30:05.504Z,3.63
2023-05-14T19:32:32.276Z,3.30
2023-05-14T19:34:59.052Z,3.40
2023-05-14T19:37:26.166Z,3.50
2023-05-14T19:39:52.922Z,3.42
2023-05-14T19:42:19.723Z,3.40
2023-05-14T19:44:46.469Z,3.00
2023-05-14T19:47:13.360Z,3.95
2023-05-14T19:49:41.169Z,3.70
2023-05-14T19:52:08.111Z,4.10
2023-05-14T19:54:34.874Z,4.28
2023-05-14T19:57:01.608Z,4.85
2023-05-14T19:59:29.727Z,5.60
2023-05-14T20:01:56.843Z,5.18
2023-05-14T20:04:25.968Z,4.95
2023-05-14T20:06:52.725Z,4.95
2023-05-14T20:09:20.052Z,3.97
2023-05-14T20:11:46.881Z,4.38
2023-05-14T20:14:14.094Z,3.92
2023-05-14T20:16:41.555Z,5.13
2023-05-14T20:19:08.441Z,5.15
2023-05-14T20:21:35.233Z,4.35
2023-05-14T20:24:02.375Z,4.90
2023-05-14T20:26:29.159Z,4.60
2023-05-14T20:28:55.991Z,4.82
2023-05-14T20:31:23.296Z,5.05
2023-05-14T20:33:50.580Z,5.13
2023-05-14T20:36:17.335Z,5.18
2023-05-14T20:38:44.660Z,5.10
2023-05-14T20:41:12.043Z,5.70
2023-05-14T20:43:38.862Z,5.20
2023-05-14T20:46:07.133Z,5.32
2023-05-14T20:48:34.007Z,5.78
2023-05-14T20:51:01.667Z,5.72
2023-05-14T20:53:28.743Z,5.85
2023-05-14T20:55:56.363Z,5.63
2023-05-14T20:58:23.103Z,6.10
2023-05-14T21:00:49.919Z,6.05
2023-05-14T21:03:16.965Z,6.18
2023-05-14T21:05:43.950Z,5.70
2023-05-14T21:08:11.051Z,6.38
2023-05-14T21:10:37.845Z,6.32
2023-05-14T21:13:04.677Z,5.85
2023-05-14T21:15:31.426Z,5.82
2023-05-14T21:17:58.287Z,6.70
2023-05-14T21:20:25.079Z,6.43
2023-05-14T21:22:51.828Z,6.65
2023-05-14T21:25:19.038Z,6.32
2023-05-14T21:27:46.933Z,6.80
2023-05-14T21:30:14.220Z,7.10
2023-05-14T21:32:41.423Z,6.70
2023-05-14T21:35:08.891Z,7.28
2023-05-14T21:37:35.974Z,7.00
2023-05-14T21:40:02.795Z,7.68
2023-05-14T21:42:29.632Z,7.20
2023-05-14T21:44:56.395Z,7.53
2023-05-14T21:47:23.216Z,7.82
2023-05-14T21:49:49.953Z,7.70
2023-05-14T21:52:16.704Z,7.55
2023-05-14T21:54:43.464Z,7.88
2023-05-14T21:57:10.275Z,8.23
2023-05-14T21:59:37.508Z,8.30
2023-05-14T22:02:07.334Z,8.40
2023-05-14T22:04:35.207Z,8.88
2023-05-14T22:07:02.485Z,9.18
2023-05-14T22:09:30.275Z,8.90
2023-05-14T22:11:58.256Z,8.73
2023-05-14T22:14:26.580Z,8.90
2023-05-14T22:16:53.442Z,8.82
2023-05-14T22:19:20.292Z,9.40
2023-05-14T22:21:47.090Z,9.07
2023-05-14T22:24:14.910Z,8.57
2023-05-14T22:26:41.698Z,9.02
2023-05-14T22:29:08.470Z,10.00
2023-05-14T22:31:35.433Z,10.20
2023-05-14T22:34:02.198Z,10.40
2023-05-14T22:36:29.220Z,10.60
2023-05-14T22:38:56.025Z,10.00
2023-05-14T22:41:22.872Z,10.43
2023-05-14T22:43:51.190Z,10.48
2023-05-14T22:46:17.999Z,11.65
2023-05-14T22:48:44.981Z,10.63
2023-05-14T22:51:12.721Z,10.40
2023-05-14T22:53:39.651Z,10.63
2023-05-14T22:56:06.651Z,10.40
2023-05-14T22:58:33.535Z,11.10
2023-05-14T23:01:00.397Z,10.70
2023-05-14T23:03:27.296Z,10.82
2023-05-14T23:05:54.049Z,11.65
2023-05-14T23:08:20.759Z,10.40
2023-05-14T23:10:47.496Z,11.55
2023-05-14T23:13:14.234Z,11.65
2023-05-14T23:15:41.002Z,11.57
2023-05-14T23:18:08.228Z,11.75
2023-05-14T23:20:35.170Z,11.68
2023-05-14T23:23:01.958Z,12.85
2023-05-14T23:25:29.051Z,11.73
2023-05-14T23:27:55.812Z,11.95
2023-05-14T23:30:22.554Z,13.43
2023-05-14T23:32:49.379Z,12.93
2023-05-14T23:35:16.341Z,12.77
2023-05-14T23:37:47.067Z,12.38
2023-05-14T23:40:15.485Z,11.70
2023-05-14T23:42:42.710Z,12.38
2023-05-14T23:45:10.383Z,13.02
2023-05-14T23:47:37.323Z,13.40
2023-05-14T23:50:04.568Z,13.27
2023-05-14T23:52:31.415Z,12.05
2023-05-14T23:54:58.155Z,12.43
2023-05-14T23:57:25.109Z,11.35
2023-05-14T23:59:51.854Z,12.65
